Pride of America — WNBE — position and weather

sailwx.info

Track history (hours):
 
Tides and Currents Weather Stations Pressure Air Temp Water Temp Dewpoint Dewpoint Depression Visibility Wind Speed Wind Dir Waves Ship Positions

Pride of America

Owner: NCL America Inc., Honolulu, HI. More information available from US FCC via Universal Licensing System and Coast Guard Vessel Documentation Center.

Last reported at 2016-Mar-18 00:04 UTC. Time now 2016-Apr-28 23:50 UTC.
Position N 34°24' W 129°25'.
Warning: this ship's position is 41 days out of date.

Type: Passenger vessel. MMSI: 366994450.

Date/timePositionNaut miles runAvg speedWind from/ knotsBaromVisibWave heightAir tempDewpointWater temp
2016-Mar-18 00:04N 34°24' W 129°25'1318.5
2016-Mar-17 23:21N 34°31' W 129°12'1214.9
2016-Mar-17 22:33N 34°38' W 128°60'1918.7
2016-Mar-17 21:33N 34°48' W 128°41'1918.9
2016-Mar-17 20:32N 34°58' W 128°21'22718.7
2016-Mar-17 08:23N 36°58' W 124°23'1619.3
2016-Mar-17 07:33N 37°06' W 124°05'1919.0
2016-Mar-17 06:33N 37°15' W 123°45'1919.0
2016-Mar-17 05:34N 37°25' W 123°24'1919.0
2016-Mar-17 04:33N 37°34' W 123°03'1918.8
2016-Mar-17 03:33N 37°45' W 122°43'1413.9
2016-Mar-17 02:33N 37°49' W 122°27'2 2.2
2016-Mar-17 01:31N 37°48' W 122°24'0 0.0
2016-Mar-17 00:31N 37°48' W 122°24'0 0.0
2016-Mar-16 23:31N 37°48' W 122°24'0 0.0
2016-Mar-16 22:31N 37°48' W 122°24'0 0.0
2016-Mar-16 21:31N 37°48' W 122°24'0 0.0
2016-Mar-16 20:31N 37°48' W 122°24'0 0.0
2016-Mar-16 19:32N 37°48' W 122°24'0 0.0
2016-Mar-16 18:32N 37°48' W 122°24'0 0.0
2016-Mar-16 17:32N 37°48' W 122°24'0 0.0
2016-Mar-16 16:32N 37°48' W 122°24'0 0.0
2016-Mar-16 15:32N 37°48' W 122°24'0 0.0
2016-Mar-16 14:32N 37°48' W 122°24'0 0.0
2016-Mar-16 13:32N 37°48' W 122°24'0 0.0
2016-Mar-16 12:32N 37°48' W 122°24'0 0.0
2016-Mar-16 11:32N 37°48' W 122°24'0 0.0
2016-Mar-16 10:32N 37°48' W 122°24'0 0.0
2016-Mar-16 09:32N 37°48' W 122°24'0 0.0
2016-Mar-16 08:32N 37°48' W 122°24'0 0.0
2016-Mar-16 07:32N 37°48' W 122°24'0 0.0
2016-Mar-16 06:32N 37°48' W 122°24'0 0.0
2016-Mar-16 05:32N 37°48' W 122°24'0 0.0
2016-Mar-16 04:32N 37°48' W 122°24'0 0.0
2016-Mar-16 03:32N 37°48' W 122°24'0 0.0
2016-Mar-16 02:32N 37°48' W 122°24'0 0.0
2016-Mar-16 01:32N 37°48' W 122°24'0 0.0
2016-Mar-16 00:32N 37°48' W 122°24'0 0.0
2016-Mar-15 23:32N 37°48' W 122°24'0 0.0
2016-Mar-15 22:32N 37°48' W 122°24'0 0.0
2016-Mar-15 21:32N 37°48' W 122°24'0 0.0
2016-Mar-15 20:32N 37°48' W 122°24'0 0.0
2016-Mar-15 19:32N 37°48' W 122°24'0 0.0
2016-Mar-15 18:32N 37°48' W 122°24'0 0.0
2016-Mar-15 17:32N 37°48' W 122°24'0 0.0
2016-Mar-15 16:33N 37°48' W 122°24'0 0.0
2016-Mar-15 15:32N 37°48' W 122°24'0 0.0
2016-Mar-15 14:32N 37°48' W 122°24'0 0.0
2016-Mar-15 13:32N 37°48' W 122°24'0 0.0
2016-Mar-15 12:32N 37°48' W 122°24'0 0.0
2016-Mar-15 11:32N 37°48' W 122°24'0 0.0
2016-Mar-15 10:32N 37°48' W 122°24'0 0.1
2016-Mar-15 09:34N 37°48' W 122°24'8 8.0
2016-Mar-15 08:34N 37°47' W 122°34'1414.0
2016-Mar-15 07:33N 37°40' W 122°49'1616.4
2016-Mar-15 06:33N 37°30' W 123°06'1716.2
2016-Mar-15 05:30N 37°21' W 123°24'1916.3
2016-Mar-15 04:22N 37°11' W 123°44'1315.2
2016-Mar-15 03:30N 37°09' W 124°00'1 1.1
2016-Mar-15 02:32N 37°08' W 124°01'5 4.6
2016-Mar-15 01:31N 37°04' W 124°02'8 8.3
2016-Mar-15 00:33N 37°08' W 123°54'1717.3
2016-Mar-14 23:33N 37°17' W 123°35'1817.6
2016-Mar-14 22:33N 37°27' W 123°17'1818.2
2016-Mar-14 21:33N 37°37' W 122°58'1717.4
2016-Mar-14 20:34N 37°46' W 122°39'1312.5
2016-Mar-14 19:33N 37°49' W 122°24'3 2.6
2016-Mar-14 18:33N 37°46' W 122°23'0 0.2
2016-Mar-14 17:33N 37°46' W 122°22'0 0.1
2016-Mar-14 16:33N 37°46' W 122°22'0 0.1
2016-Mar-14 15:33N 37°46' W 122°23'0 0.0
2016-Mar-14 14:33N 37°46' W 122°23'0 0.2
2016-Mar-14 13:33N 37°46' W 122°22'0 0.1
2016-Mar-14 12:33N 37°46' W 122°23'0 0.1
2016-Mar-14 11:33N 37°46' W 122°23'0 0.1
2016-Mar-14 10:33N 37°46' W 122°23'0 0.4
2016-Mar-14 09:33N 37°46' W 122°23'0 0.0
2016-Mar-14 08:33N 37°46' W 122°23'0 0.0
2016-Mar-14 07:31N 37°46' W 122°23'0 0.0
2016-Mar-14 06:31N 37°46' W 122°23'0 0.0
2016-Mar-14 05:31N 37°46' W 122°23'0 0.0
2016-Mar-14 04:31N 37°46' W 122°23'0 0.0
2016-Mar-14 03:31N 37°46' W 122°23'0 0.0
2016-Mar-14 02:31N 37°46' W 122°23'0 0.0
2016-Mar-14 01:31N 37°46' W 122°23'0 0.0
2016-Mar-14 00:31N 37°46' W 122°23'0 0.0
2016-Mar-13 23:31N 37°46' W 122°23'0 0.0
2016-Mar-13 22:31N 37°46' W 122°23'0 0.0
2016-Mar-13 21:33N 37°46' W 122°23'0 0.0
2016-Mar-13 20:33N 37°46' W 122°23'0 0.0
2016-Mar-13 19:33N 37°46' W 122°23'0 0.0
2016-Mar-13 18:34N 37°46' W 122°23'0 0.0
2016-Mar-13 17:33N 37°46' W 122°23'0 0.0
2016-Mar-13 16:33N 37°46' W 122°23'0 0.0
2016-Mar-13 15:29N 37°46' W 122°23'0 0.0
2016-Mar-13 14:32N 37°46' W 122°23'0 0.0
2016-Mar-13 13:32N 37°46' W 122°23'0 0.0
2016-Mar-13 12:32N 37°46' W 122°23'0 0.0
2016-Mar-13 11:33N 37°46' W 122°23'0 0.0
2016-Mar-13 10:31N 37°46' W 122°23'0 0.0
2016-Mar-13 09:31N 37°46' W 122°23'0 0.0
2016-Mar-13 08:31N 37°46' W 122°23'0 0.0
2016-Mar-13 07:31N 37°46' W 122°23'0 0.0
2016-Mar-13 06:31N 37°46' W 122°23'0 0.0
2016-Mar-13 05:33N 37°46' W 122°23'0 0.0
2016-Mar-13 04:33N 37°46' W 122°23'0 0.0
2016-Mar-13 03:33N 37°46' W 122°23'0 0.0
2016-Mar-13 02:33N 37°46' W 122°23'0 0.0
2016-Mar-13 01:33N 37°46' W 122°23'0 0.0
2016-Mar-13 00:33N 37°46' W 122°23'0 0.0
2016-Mar-12 23:33N 37°46' W 122°23'0 0.0
2016-Mar-12 22:33N 37°46' W 122°23'0 0.0
2016-Mar-12 21:33N 37°46' W 122°23'0 0.0
2016-Mar-12 20:33N 37°46' W 122°23'0 0.0
2016-Mar-12 19:27N 37°46' W 122°23'0 0.0
2016-Mar-12 18:30N 37°46' W 122°23'0 0.0
2016-Mar-12 17:33N 37°46' W 122°23'0 0.0
2016-Mar-12 16:33N 37°46' W 122°23'0 0.0
2016-Mar-12 15:33N 37°46' W 122°23'0 0.0
2016-Mar-12 14:33N 37°46' W 122°23'0 0.0
2016-Mar-12 13:33N 37°46' W 122°23'0 0.0
2016-Mar-12 12:33N 37°46' W 122°23'0 0.0
2016-Mar-12 11:33N 37°46' W 122°23'0 0.0
2016-Mar-12 10:33N 37°46' W 122°23'0 0.0
2016-Mar-12 09:33N 37°46' W 122°23'0 0.0
2016-Mar-12 08:33N 37°46' W 122°23'0 0.0
2016-Mar-12 07:33N 37°46' W 122°23'0 0.0
2016-Mar-12 06:33N 37°46' W 122°23'0 0.0
2016-Mar-12 05:33N 37°46' W 122°23'0 0.0
2016-Mar-12 04:32N 37°46' W 122°23'0 0.0
2016-Mar-12 03:32N 37°46' W 122°23'0 0.0
2016-Mar-12 02:32N 37°46' W 122°23'0 0.0
2016-Mar-12 01:32N 37°46' W 122°23'0 0.0
2016-Mar-12 00:32N 37°46' W 122°23'0 0.0
2016-Mar-11 23:32N 37°46' W 122°23'0 0.0
2016-Mar-11 22:32N 37°46' W 122°23'0 0.0
2016-Mar-11 21:32N 37°46' W 122°23'0 0.0
2016-Mar-11 20:32N 37°46' W 122°23'0 0.0
2016-Mar-11 19:29N 37°46' W 122°23'0 0.0
2016-Mar-11 18:32N 37°46' W 122°23'0 0.0
2016-Mar-11 17:32N 37°46' W 122°23'0 0.0
2016-Mar-11 16:32N 37°46' W 122°23'0 0.0
2016-Mar-11 15:32N 37°46' W 122°23'0 0.0
2016-Mar-11 14:32N 37°46' W 122°23'0 0.0
2016-Mar-11 13:32N 37°46' W 122°23'0 0.0
2016-Mar-11 12:32N 37°46' W 122°23'0 0.0
2016-Mar-11 11:32N 37°46' W 122°23'0 0.0
2016-Mar-11 10:32N 37°46' W 122°23'0 0.0
2016-Mar-11 09:32N 37°46' W 122°23'0 0.0
2016-Mar-11 08:32N 37°46' W 122°23'0 0.0
2016-Mar-11 07:32N 37°46' W 122°23'0 0.0
2016-Mar-11 06:32N 37°46' W 122°23'0 0.0
2016-Mar-11 05:32N 37°46' W 122°23'0 0.0
2016-Mar-11 04:32N 37°46' W 122°23'0 0.0
2016-Mar-11 03:32N 37°46' W 122°23'  
Track history (hours):
 
Tides and Currents Weather Stations Pressure Air Temp Water Temp Dewpoint Dewpoint Depression Visibility Wind Speed Wind Dir Waves Ship Positions

Pride of America

Owner: NCL America Inc., Honolulu, HI. More information available from US FCC via Universal Licensing System and Coast Guard Vessel Documentation Center.

Last reported at 2016-Mar-18 00:04 UTC. Time now 2016-Apr-28 23:50 UTC.
Position N 34°24' W 129°25'.
Warning: this ship's position is 41 days out of date.

Type: Passenger vessel. MMSI: 366994450.

Date/timePositionNaut miles runAvg speedWind from/ knotsBaromVisibWave heightAir tempDewpointWater temp
2016-Mar-18 00:04N 34°24' W 129°25'1318.5
2016-Mar-17 23:21N 34°31' W 129°12'1214.9
2016-Mar-17 22:33N 34°38' W 128°60'1918.7
2016-Mar-17 21:33N 34°48' W 128°41'1918.9
2016-Mar-17 20:32N 34°58' W 128°21'22718.7
2016-Mar-17 08:23N 36°58' W 124°23'1619.3
2016-Mar-17 07:33N 37°06' W 124°05'1919.0
2016-Mar-17 06:33N 37°15' W 123°45'1919.0
2016-Mar-17 05:34N 37°25' W 123°24'1919.0
2016-Mar-17 04:33N 37°34' W 123°03'1918.8
2016-Mar-17 03:33N 37°45' W 122°43'1413.9
2016-Mar-17 02:33N 37°49' W 122°27'2 2.2
2016-Mar-17 01:31N 37°48' W 122°24'0 0.0
2016-Mar-17 00:31N 37°48' W 122°24'0 0.0
2016-Mar-16 23:31N 37°48' W 122°24'0 0.0
2016-Mar-16 22:31N 37°48' W 122°24'0 0.0
2016-Mar-16 21:31N 37°48' W 122°24'0 0.0
2016-Mar-16 20:31N 37°48' W 122°24'0 0.0
2016-Mar-16 19:32N 37°48' W 122°24'0 0.0
2016-Mar-16 18:32N 37°48' W 122°24'0 0.0
2016-Mar-16 17:32N 37°48' W 122°24'0 0.0
2016-Mar-16 16:32N 37°48' W 122°24'0 0.0
2016-Mar-16 15:32N 37°48' W 122°24'0 0.0
2016-Mar-16 14:32N 37°48' W 122°24'0 0.0
2016-Mar-16 13:32N 37°48' W 122°24'0 0.0
2016-Mar-16 12:32N 37°48' W 122°24'0 0.0
2016-Mar-16 11:32N 37°48' W 122°24'0 0.0
2016-Mar-16 10:32N 37°48' W 122°24'0 0.0
2016-Mar-16 09:32N 37°48' W 122°24'0 0.0
2016-Mar-16 08:32N 37°48' W 122°24'0 0.0
2016-Mar-16 07:32N 37°48' W 122°24'0 0.0
2016-Mar-16 06:32N 37°48' W 122°24'0 0.0
2016-Mar-16 05:32N 37°48' W 122°24'0 0.0
2016-Mar-16 04:32N 37°48' W 122°24'0 0.0
2016-Mar-16 03:32N 37°48' W 122°24'0 0.0
2016-Mar-16 02:32N 37°48' W 122°24'0 0.0
2016-Mar-16 01:32N 37°48' W 122°24'0 0.0
2016-Mar-16 00:32N 37°48' W 122°24'0 0.0
2016-Mar-15 23:32N 37°48' W 122°24'0 0.0
2016-Mar-15 22:32N 37°48' W 122°24'0 0.0
2016-Mar-15 21:32N 37°48' W 122°24'0 0.0
2016-Mar-15 20:32N 37°48' W 122°24'0 0.0
2016-Mar-15 19:32N 37°48' W 122°24'0 0.0
2016-Mar-15 18:32N 37°48' W 122°24'0 0.0
2016-Mar-15 17:32N 37°48' W 122°24'0 0.0
2016-Mar-15 16:33N 37°48' W 122°24'0 0.0
2016-Mar-15 15:32N 37°48' W 122°24'0 0.0
2016-Mar-15 14:32N 37°48' W 122°24'0 0.0
2016-Mar-15 13:32N 37°48' W 122°24'0 0.0
2016-Mar-15 12:32N 37°48' W 122°24'0 0.0
2016-Mar-15 11:32N 37°48' W 122°24'0 0.0
2016-Mar-15 10:32N 37°48' W 122°24'0 0.1
2016-Mar-15 09:34N 37°48' W 122°24'8 8.0
2016-Mar-15 08:34N 37°47' W 122°34'1414.0
2016-Mar-15 07:33N 37°40' W 122°49'1616.4
2016-Mar-15 06:33N 37°30' W 123°06'1716.2
2016-Mar-15 05:30N 37°21' W 123°24'1916.3
2016-Mar-15 04:22N 37°11' W 123°44'1315.2
2016-Mar-15 03:30N 37°09' W 124°00'1 1.1
2016-Mar-15 02:32N 37°08' W 124°01'5 4.6
2016-Mar-15 01:31N 37°04' W 124°02'8 8.3
2016-Mar-15 00:33N 37°08' W 123°54'1717.3
2016-Mar-14 23:33N 37°17' W 123°35'1817.6
2016-Mar-14 22:33N 37°27' W 123°17'1818.2
2016-Mar-14 21:33N 37°37' W 122°58'1717.4
2016-Mar-14 20:34N 37°46' W 122°39'1312.5
2016-Mar-14 19:33N 37°49' W 122°24'3 2.6
2016-Mar-14 18:33N 37°46' W 122°23'0 0.2
2016-Mar-14 17:33N 37°46' W 122°22'0 0.1
2016-Mar-14 16:33N 37°46' W 122°22'0 0.1
2016-Mar-14 15:33N 37°46' W 122°23'0 0.0
2016-Mar-14 14:33N 37°46' W 122°23'0 0.2
2016-Mar-14 13:33N 37°46' W 122°22'0 0.1
2016-Mar-14 12:33N 37°46' W 122°23'0 0.1
2016-Mar-14 11:33N 37°46' W 122°23'0 0.1
2016-Mar-14 10:33N 37°46' W 122°23'0 0.4
2016-Mar-14 09:33N 37°46' W 122°23'0 0.0
2016-Mar-14 08:33N 37°46' W 122°23'0 0.0
2016-Mar-14 07:31N 37°46' W 122°23'0 0.0
2016-Mar-14 06:31N 37°46' W 122°23'0 0.0
2016-Mar-14 05:31N 37°46' W 122°23'0 0.0
2016-Mar-14 04:31N 37°46' W 122°23'0 0.0
2016-Mar-14 03:31N 37°46' W 122°23'0 0.0
2016-Mar-14 02:31N 37°46' W 122°23'0 0.0
2016-Mar-14 01:31N 37°46' W 122°23'0 0.0
2016-Mar-14 00:31N 37°46' W 122°23'0 0.0
2016-Mar-13 23:31N 37°46' W 122°23'0 0.0
2016-Mar-13 22:31N 37°46' W 122°23'0 0.0
2016-Mar-13 21:33N 37°46' W 122°23'0 0.0
2016-Mar-13 20:33N 37°46' W 122°23'0 0.0
2016-Mar-13 19:33N 37°46' W 122°23'0 0.0
2016-Mar-13 18:34N 37°46' W 122°23'0 0.0
2016-Mar-13 17:33N 37°46' W 122°23'0 0.0
2016-Mar-13 16:33N 37°46' W 122°23'0 0.0
2016-Mar-13 15:29N 37°46' W 122°23'0 0.0
2016-Mar-13 14:32N 37°46' W 122°23'0 0.0
2016-Mar-13 13:32N 37°46' W 122°23'0 0.0
2016-Mar-13 12:32N 37°46' W 122°23'0 0.0
2016-Mar-13 11:33N 37°46' W 122°23'0 0.0
2016-Mar-13 10:31N 37°46' W 122°23'0 0.0
2016-Mar-13 09:31N 37°46' W 122°23'0 0.0
2016-Mar-13 08:31N 37°46' W 122°23'0 0.0
2016-Mar-13 07:31N 37°46' W 122°23'0 0.0
2016-Mar-13 06:31N 37°46' W 122°23'0 0.0
2016-Mar-13 05:33N 37°46' W 122°23'0 0.0
2016-Mar-13 04:33N 37°46' W 122°23'0 0.0
2016-Mar-13 03:33N 37°46' W 122°23'0 0.0
2016-Mar-13 02:33N 37°46' W 122°23'0 0.0
2016-Mar-13 01:33N 37°46' W 122°23'0 0.0
2016-Mar-13 00:33N 37°46' W 122°23'0 0.0
2016-Mar-12 23:33N 37°46' W 122°23'0 0.0
2016-Mar-12 22:33N 37°46' W 122°23'0 0.0
2016-Mar-12 21:33N 37°46' W 122°23'0 0.0
2016-Mar-12 20:33N 37°46' W 122°23'0 0.0
2016-Mar-12 19:27N 37°46' W 122°23'0 0.0
2016-Mar-12 18:30N 37°46' W 122°23'0 0.0
2016-Mar-12 17:33N 37°46' W 122°23'0 0.0
2016-Mar-12 16:33N 37°46' W 122°23'0 0.0
2016-Mar-12 15:33N 37°46' W 122°23'0 0.0
2016-Mar-12 14:33N 37°46' W 122°23'0 0.0
2016-Mar-12 13:33N 37°46' W 122°23'0 0.0
2016-Mar-12 12:33N 37°46' W 122°23'0 0.0
2016-Mar-12 11:33N 37°46' W 122°23'0 0.0
2016-Mar-12 10:33N 37°46' W 122°23'0 0.0
2016-Mar-12 09:33N 37°46' W 122°23'0 0.0
2016-Mar-12 08:33N 37°46' W 122°23'0 0.0
2016-Mar-12 07:33N 37°46' W 122°23'0 0.0
2016-Mar-12 06:33N 37°46' W 122°23'0 0.0
2016-Mar-12 05:33N 37°46' W 122°23'0 0.0
2016-Mar-12 04:32N 37°46' W 122°23'0 0.0
2016-Mar-12 03:32N 37°46' W 122°23'0 0.0
2016-Mar-12 02:32N 37°46' W 122°23'0 0.0
2016-Mar-12 01:32N 37°46' W 122°23'0 0.0
2016-Mar-12 00:32N 37°46' W 122°23'0 0.0
2016-Mar-11 23:32N 37°46' W 122°23'0 0.0
2016-Mar-11 22:32N 37°46' W 122°23'0 0.0
2016-Mar-11 21:32N 37°46' W 122°23'0 0.0
2016-Mar-11 20:32N 37°46' W 122°23'0 0.0
2016-Mar-11 19:29N 37°46' W 122°23'0 0.0
2016-Mar-11 18:32N 37°46' W 122°23'0 0.0
2016-Mar-11 17:32N 37°46' W 122°23'0 0.0
2016-Mar-11 16:32N 37°46' W 122°23'0 0.0
2016-Mar-11 15:32N 37°46' W 122°23'0 0.0
2016-Mar-11 14:32N 37°46' W 122°23'0 0.0
2016-Mar-11 13:32N 37°46' W 122°23'0 0.0
2016-Mar-11 12:32N 37°46' W 122°23'0 0.0
2016-Mar-11 11:32N 37°46' W 122°23'0 0.0
2016-Mar-11 10:32N 37°46' W 122°23'0 0.0
2016-Mar-11 09:32N 37°46' W 122°23'0 0.0
2016-Mar-11 08:32N 37°46' W 122°23'0 0.0
2016-Mar-11 07:32N 37°46' W 122°23'0 0.0
2016-Mar-11 06:32N 37°46' W 122°23'0 0.0
2016-Mar-11 05:32N 37°46' W 122°23'0 0.0
2016-Mar-11 04:32N 37°46' W 122°23'0 0.0
2016-Mar-11 03:32N 37°46' W 122°23'  

Dump ship's entire track history